Time;durP1;ratioP1;P1;durP2;ratioP2;P2;SDS_P1;SDS_P2;PMS_P1;PMS_P2;Temp;Humidity;BMP_temperature;BMP_pressure;BME280_temperature;BME280_humidity;BME280_pressure;Samples;Min_cycle;Max_cycle;Signal;HPM_P1;HPM_P2
2022/01/13 00:00:17;;;;;;;24.15;16.05;;;1.70;99.90;;;;;;4952227;28;20240;-72
2022/01/13 00:03:03;;;;;;;21.98;15.25;;;1.70;99.90;;;;;;4958459;23;20228;-74
2022/01/13 00:05:50;;;;;;;21.40;15.40;;;1.50;99.90;;;;;;4923151;29;20762;-75
2022/01/13 00:08:36;;;;;;;24.48;16.08;;;1.50;99.90;;;;;;4929279;29;20216;-74
2022/01/13 00:11:21;;;;;;;26.05;14.35;;;1.50;99.90;;;;;;4931402;29;20731;-75
2022/01/13 00:14:27;;;;;;;21.15;16.48;;;1.40;99.90;;;;;;4916247;29;20225;-75
2022/01/13 00:17:27;;;;;;;23.15;16.85;;;1.20;99.90;;;;;;4914230;29;20683;-74
2022/01/13 00:20:58;;;;;;;22.38;16.00;;;1.10;99.90;;;;;;4919495;29;20288;-75
2022/01/13 00:23:46;;;;;;;25.23;17.15;;;1.00;99.90;;;;;;4906479;29;20225;-74
2022/01/13 00:26:34;;;;;;;22.50;16.30;;;0.90;99.90;;;;;;4915174;29;20210;-75
2022/01/13 00:29:26;;;;;;;21.52;16.58;;;0.90;99.90;;;;;;4915754;29;20217;-74
2022/01/13 00:32:15;;;;;;;27.13;17.15;;;0.90;99.90;;;;;;4907869;29;20241;-74
2022/01/13 00:35:00;;;;;;;28.40;16.65;;;0.80;99.90;;;;;;4912700;29;20464;-74
2022/01/13 00:37:46;;;;;;;26.15;16.02;;;0.90;99.90;;;;;;4915316;29;20680;-74
2022/01/13 00:40:33;;;;;;;31.58;17.85;;;1.10;99.90;;;;;;4920324;29;20205;-74
2022/01/13 00:43:20;;;;;;;21.80;15.77;;;1.20;99.90;;;;;;4920443;29;20220;-74
2022/01/13 00:46:05;;;;;;;25.08;15.27;;;1.30;99.90;;;;;;4934360;29;20292;-74
2022/01/13 00:48:53;;;;;;;23.38;16.35;;;1.20;99.90;;;;;;4908607;29;20210;-74
2022/01/13 00:51:39;;;;;;;22.55;15.07;;;1.00;99.90;;;;;;4914200;29;20209;-75
2022/01/13 00:54:25;;;;;;;25.23;17.48;;;1.00;99.90;;;;;;4917629;29;20719;-74
2022/01/13 00:57:12;;;;;;;21.65;15.30;;;0.90;99.90;;;;;;4917907;29;20204;-74
2022/01/13 00:59:58;;;;;;;25.10;15.32;;;0.90;99.90;;;;;;4924309;29;20232;-74
2022/01/13 01:02:44;;;;;;;25.35;17.17;;;0.90;99.90;;;;;;4913682;29;20246;-75
2022/01/13 01:05:29;;;;;;;21.10;15.30;;;1.00;99.90;;;;;;4907852;29;20567;-74
2022/01/13 01:08:15;;;;;;;23.90;17.88;;;0.90;99.90;;;;;;4919095;29;20205;-74
2022/01/13 01:11:03;;;;;;;28.23;17.63;;;0.80;99.90;;;;;;4923376;29;20356;-74
2022/01/13 01:13:51;;;;;;;22.40;16.38;;;0.70;99.90;;;;;;4922568;29;20278;-74
2022/01/13 01:16:37;;;;;;;25.38;17.75;;;0.70;99.90;;;;;;4923800;29;20285;-73
2022/01/13 01:19:27;;;;;;;26.00;17.33;;;0.80;99.90;;;;;;4911756;29;20222;-74
2022/01/13 01:22:33;;;;;;;24.77;17.90;;;0.90;99.90;;;;;;4905416;29;20229;-73
2022/01/13 01:28:42;;;;;;;24.10;16.00;;;0.90;99.90;;;;;;4890595;29;20538;-74
2022/01/13 01:31:32;;;;;;;22.85;15.40;;;1.00;99.90;;;;;;4911050;29;20322;-74
2022/01/13 01:34:31;;;;;;;23.60;16.50;;;1.00;99.90;;;;;;4919089;29;20225;-74
2022/01/13 01:37:19;;;;;;;24.15;15.48;;;1.00;99.90;;;;;;4916929;29;20226;-74
2022/01/13 01:40:06;;;;;;;24.83;16.58;;;1.00;99.90;;;;;;4922945;29;20283;-72
2022/01/13 01:42:52;;;;;;;20.98;15.85;;;1.00;99.90;;;;;;4922666;29;20225;-74
2022/01/13 01:45:43;;;;;;;24.40;17.45;;;0.90;99.90;;;;;;4922948;29;20197;-75
2022/01/13 01:48:34;;;;;;;23.38;15.82;;;0.80;99.90;;;;;;4914657;29;20200;-73
2022/01/13 01:51:20;;;;;;;21.48;15.43;;;0.90;99.90;;;;;;4904700;29;20222;-74
2022/01/13 01:54:06;;;;;;;23.85;16.33;;;0.80;99.90;;;;;;4924741;29;20245;-75
2022/01/13 01:56:52;;;;;;;23.95;16.95;;;0.70;99.90;;;;;;4927799;29;20696;-74
2022/01/13 01:59:40;;;;;;;23.27;16.90;;;0.50;99.90;;;;;;4925342;29;20200;-74
2022/01/13 02:02:26;;;;;;;22.08;15.93;;;0.50;99.90;;;;;;4916218;29;20236;-74
2022/01/13 02:05:13;;;;;;;27.98;17.85;;;0.30;99.90;;;;;;4921175;29;20208;-74
2022/01/13 02:07:59;;;;;;;24.92;18.05;;;0.30;99.90;;;;;;4930606;29;20583;-74
2022/01/13 02:10:45;;;;;;;27.58;18.58;;;0.20;99.90;;;;;;4907292;29;20214;-74
2022/01/13 02:13:34;;;;;;;27.45;18.52;;;0.10;99.90;;;;;;4918805;29;20721;-75
2022/01/13 02:16:37;;;;;;;25.83;19.20;;;0.20;99.90;;;;;;4910051;29;20224;-75
2022/01/13 02:19:25;;;;;;;26.95;18.15;;;0.30;99.90;;;;;;4895666;29;20270;-74
2022/01/13 02:22:13;;;;;;;25.48;18.35;;;0.40;99.90;;;;;;4929840;29;20645;-74
2022/01/13 02:24:59;;;;;;;25.00;17.88;;;0.60;99.90;;;;;;4917736;29;20218;-74
2022/01/13 02:27:45;;;;;;;20.58;16.48;;;0.80;99.90;;;;;;4926388;29;20214;-75
2022/01/13 02:30:31;;;;;;;24.00;16.40;;;1.00;99.90;;;;;;4913538;29;20221;-74
2022/01/13 02:33:17;;;;;;;24.20;16.48;;;1.00;99.90;;;;;;4923222;29;20356;-74
2022/01/13 02:36:03;;;;;;;23.27;16.85;;;1.00;99.90;;;;;;4927679;29;20205;-73
2022/01/13 02:38:53;;;;;;;27.45;16.67;;;0.90;99.90;;;;;;4926291;29;20678;-74
2022/01/13 02:41:39;;;;;;;23.83;17.63;;;0.70;99.90;;;;;;4923841;29;20205;-74
2022/01/13 02:44:25;;;;;;;23.50;16.27;;;0.60;99.90;;;;;;4918779;29;20210;-74
2022/01/13 02:47:21;;;;;;;24.67;18.98;;;0.50;99.90;;;;;;4927647;29;20438;-73
2022/01/13 02:50:08;;;;;;;25.55;17.10;;;0.40;99.90;;;;;;4915010;29;20213;-74
2022/01/13 02:52:53;;;;;;;27.33;18.75;;;0.30;99.90;;;;;;4919711;29;20318;-74
2022/01/13 02:55:40;;;;;;;26.10;18.50;;;0.40;99.90;;;;;;4918934;29;20229;-74
2022/01/13 02:58:26;;;;;;;26.65;18.27;;;0.40;99.90;;;;;;4918747;29;20202;-74
2022/01/13 03:01:12;;;;;;;24.83;18.17;;;0.60;99.90;;;;;;4917329;29;20212;-74
2022/01/13 03:03:59;;;;;;;29.90;19.55;;;0.70;99.90;;;;;;4926874;29;20591;-74
2022/01/13 03:06:45;;;;;;;29.45;19.02;;;0.70;99.90;;;;;;4917839;29;20209;-74
2022/01/13 03:09:31;;;;;;;22.65;16.90;;;0.80;99.90;;;;;;4912777;29;20285;-73
2022/01/13 03:12:19;;;;;;;30.10;19.27;;;0.90;99.90;;;;;;4919663;29;20294;-74
2022/01/13 03:15:05;;;;;;;27.80;17.05;;;1.00;99.90;;;;;;4915692;29;20724;-74
2022/01/13 03:17:51;;;;;;;22.90;16.40;;;1.20;99.90;;;;;;4920670;29;20269;-74
2022/01/13 03:20:36;;;;;;;25.52;18.63;;;1.20;99.90;;;;;;4914260;29;20578;-74
2022/01/13 03:23:22;;;;;;;27.67;16.98;;;1.10;99.90;;;;;;4914773;29;20308;-74
2022/01/13 03:26:07;;;;;;;26.45;18.08;;;1.20;99.90;;;;;;4927479;29;20268;-75
2022/01/13 03:29:05;;;;;;;26.83;17.00;;;1.20;99.90;;;;;;4923815;29;20209;-73
2022/01/13 03:31:50;;;;;;;27.25;17.90;;;1.20;99.90;;;;;;4916517;29;20209;-74
2022/01/13 03:34:36;;;;;;;23.02;16.80;;;1.10;99.90;;;;;;4922991;29;20293;-73
2022/01/13 03:37:22;;;;;;;26.00;17.58;;;0.90;99.90;;;;;;4928241;29;20686;-74
2022/01/13 03:40:08;;;;;;;28.92;17.85;;;0.80;99.90;;;;;;4922635;29;20210;-74
2022/01/13 03:42:54;;;;;;;24.90;18.25;;;0.60;99.90;;;;;;4933905;29;20702;-75
2022/01/13 03:45:41;;;;;;;24.50;18.42;;;0.40;99.90;;;;;;4919835;29;20625;-74
2022/01/13 03:48:27;;;;;;;26.60;18.20;;;0.40;99.90;;;;;;4921221;29;20206;-73
2022/01/13 03:51:12;;;;;;;30.08;20.52;;;0.50;99.90;;;;;;4928248;29;20205;-74
2022/01/13 03:54:48;;;;;;;25.35;17.40;;;0.60;99.90;;;;;;4930945;29;20225;-73
2022/01/13 03:58:16;;;;;;;26.63;17.02;;;0.60;99.90;;;;;;4915498;29;20212;-72
2022/01/13 04:01:43;;;;;;;25.83;18.42;;;0.50;99.90;;;;;;4921212;29;20572;-74
2022/01/13 04:04:30;;;;;;;28.83;19.30;;;0.70;99.90;;;;;;4919398;29;20675;-75
2022/01/13 04:07:18;;;;;;;25.58;18.10;;;0.70;99.90;;;;;;4922138;29;20217;-74
2022/01/13 04:10:41;;;;;;;23.40;17.05;;;0.70;99.90;;;;;;4916561;29;20238;-74
2022/01/13 04:13:45;;;;;;;28.85;18.52;;;0.80;99.90;;;;;;4901559;29;20587;-74
2022/01/13 04:16:36;;;;;;;25.75;17.45;;;0.90;99.90;;;;;;4925013;29;20212;-74
2022/01/13 04:19:22;;;;;;;24.02;16.70;;;0.90;99.90;;;;;;4919461;29;20224;-74
2022/01/13 04:22:09;;;;;;;25.48;17.85;;;0.80;99.90;;;;;;4918160;29;20694;-74
2022/01/13 04:24:55;;;;;;;31.10;19.40;;;0.80;99.90;;;;;;4916712;29;20570;-75
2022/01/13 04:27:43;;;;;;;27.20;19.42;;;0.80;99.90;;;;;;4918703;29;20382;-74
2022/01/13 04:30:46;;;;;;;25.48;17.85;;;0.60;99.90;;;;;;4921930;29;20221;-74
2022/01/13 04:33:36;;;;;;;28.85;17.80;;;0.50;99.90;;;;;;4901223;29;20225;-74
2022/01/13 04:36:21;;;;;;;26.35;18.67;;;0.40;99.90;;;;;;4912270;29;20225;-74
2022/01/13 04:39:09;;;;;;;28.83;19.50;;;0.40;99.90;;;;;;4913199;29;20695;-75
2022/01/13 04:41:55;;;;;;;29.40;19.20;;;0.50;99.90;;;;;;4924242;29;20201;-74
2022/01/13 04:44:41;;;;;;;30.30;18.48;;;0.60;99.90;;;;;;4919527;29;20209;-74
2022/01/13 04:47:27;;;;;;;25.85;18.10;;;0.80;99.90;;;;;;4899269;29;20627;-73
2022/01/13 04:50:14;;;;;;;30.23;20.02;;;0.70;99.90;;;;;;4900167;29;20572;-74
2022/01/13 04:53:00;;;;;;;26.58;19.65;;;0.60;99.90;;;;;;4924214;29;20715;-75
2022/01/13 04:55:52;;;;;;;27.25;18.98;;;0.70;99.90;;;;;;4914902;29;20229;-74
2022/01/13 04:58:38;;;;;;;30.98;19.27;;;0.80;99.90;;;;;;4907331;29;20205;-74
2022/01/13 05:01:24;;;;;;;25.92;18.50;;;1.00;99.90;;;;;;4908168;29;20204;-75
2022/01/13 05:04:10;;;;;;;29.25;18.63;;;0.90;99.90;;;;;;4925556;29;20285;-74
2022/01/13 05:06:57;;;;;;;29.67;19.50;;;0.90;99.90;;;;;;4922154;29;20262;-73
2022/01/13 05:09:43;;;;;;;30.75;18.48;;;0.90;99.90;;;;;;4919390;29;20221;-73
2022/01/13 05:12:33;;;;;;;27.30;18.75;;;1.00;99.90;;;;;;4896422;29;20225;-75
2022/01/13 05:15:22;;;;;;;26.95;18.60;;;1.10;99.90;;;;;;4922557;29;20552;-74
2022/01/13 05:18:21;;;;;;;25.65;18.38;;;1.20;99.90;;;;;;4914563;29;20591;-74
2022/01/13 05:21:17;;;;;;;30.75;19.27;;;1.30;99.90;;;;;;4926930;29;20598;-75
2022/01/13 05:24:05;;;;;;;28.92;18.77;;;1.30;99.90;;;;;;4920816;29;20710;-74
2022/01/13 05:26:51;;;;;;;30.52;19.48;;;1.50;99.90;;;;;;4915006;29;20740;-74
2022/01/13 05:29:36;;;;;;;33.30;20.85;;;1.50;99.90;;;;;;4920734;29;20213;-75
2022/01/13 05:32:22;;;;;;;32.78;22.20;;;1.50;99.90;;;;;;4921797;29;20229;-74
2022/01/13 05:35:08;;;;;;;30.73;20.35;;;1.50;99.90;;;;;;4917494;29;20603;-74
2022/01/13 05:37:54;;;;;;;30.58;20.10;;;1.50;99.90;;;;;;4916520;29;20204;-74
2022/01/13 05:40:41;;;;;;;32.53;20.17;;;1.60;99.90;;;;;;4915437;29;20209;-74
2022/01/13 05:43:28;;;;;;;32.55;20.58;;;1.70;99.90;;;;;;4916429;29;20224;-75
2022/01/13 05:46:13;;;;;;;32.72;19.65;;;1.70;99.90;;;;;;4914384;29;20773;-74
2022/01/13 05:48:59;;;;;;;35.67;22.42;;;1.80;99.90;;;;;;4922173;29;20204;-74
2022/01/13 05:51:44;;;;;;;29.80;20.80;;;1.80;99.90;;;;;;4925233;29;20209;-74
2022/01/13 05:54:30;;;;;;;30.65;19.65;;;1.80;99.90;;;;;;4896379;29;20569;-75
2022/01/13 05:57:17;;;;;;;34.55;22.20;;;1.80;99.90;;;;;;4909977;29;20209;-74
2022/01/13 06:00:04;;;;;;;32.30;21.40;;;1.90;99.90;;;;;;4924970;29;20674;-73
2022/01/13 06:02:50;;;;;;;30.63;18.13;;;1.90;99.90;;;;;;4945594;23;20282;-71
2022/01/13 06:05:35;;;;;;;27.55;19.92;;;1.80;99.90;;;;;;4972029;28;20194;-72
2022/01/13 06:08:21;;;;;;;28.80;20.52;;;1.80;99.90;;;;;;4965066;28;20287;-71
2022/01/13 06:11:07;;;;;;;34.83;22.85;;;1.80;99.90;;;;;;4972596;28;20231;-71
2022/01/13 06:13:54;;;;;;;31.83;22.33;;;1.80;99.90;;;;;;4955969;28;20287;-72
2022/01/13 06:16:40;;;;;;;33.58;23.05;;;1.90;99.90;;;;;;4944100;28;20225;-71
2022/01/13 06:19:26;;;;;;;32.53;23.40;;;1.80;99.90;;;;;;4949716;28;20340;-71
2022/01/13 06:22:11;;;;;;;28.77;22.25;;;1.80;99.90;;;;;;4952440;28;20212;-72
2022/01/13 06:24:57;;;;;;;33.65;25.35;;;1.80;99.90;;;;;;4950916;29;20280;-72
2022/01/13 06:27:42;;;;;;;32.70;24.10;;;1.70;99.90;;;;;;4953354;28;20208;-72
2022/01/13 06:30:30;;;;;;;37.80;21.08;;;1.60;99.90;;;;;;4952915;28;20223;-71
2022/01/13 06:33:16;;;;;;;32.90;23.20;;;1.60;99.90;;;;;;4952219;28;20228;-71
2022/01/13 06:36:04;;;;;;;33.33;24.02;;;1.70;99.90;;;;;;4947540;28;20221;-72
2022/01/13 06:38:51;;;;;;;34.80;25.08;;;1.80;99.90;;;;;;4952086;29;20212;-72
2022/01/13 06:41:39;;;;;;;33.50;23.10;;;1.80;99.90;;;;;;4952503;28;20212;-72
2022/01/13 06:44:25;;;;;;;32.33;22.85;;;1.90;99.90;;;;;;4950881;28;20787;-71
2022/01/13 06:47:12;;;;;;;32.08;22.83;;;1.90;99.90;;;;;;4939751;29;20256;-71
2022/01/13 06:49:57;;;;;;;33.05;22.55;;;2.00;99.90;;;;;;4952974;29;20200;-71
2022/01/13 06:52:44;;;;;;;29.88;21.92;;;1.90;99.90;;;;;;4952429;28;20750;-71
2022/01/13 06:55:30;;;;;;;28.33;20.80;;;2.00;99.90;;;;;;4947999;29;20219;-71
2022/01/13 06:58:15;;;;;;;34.53;23.67;;;1.90;99.90;;;;;;4948644;28;20216;-71
2022/01/13 07:01:01;;;;;;;30.70;22.60;;;1.90;99.90;;;;;;4951383;28;20291;-71
2022/01/13 07:03:48;;;;;;;30.60;22.38;;;1.90;99.90;;;;;;4950910;28;20243;-71
2022/01/13 07:06:34;;;;;;;32.13;22.55;;;2.00;99.90;;;;;;4952868;28;20232;-71
2022/01/13 07:09:20;;;;;;;28.90;21.08;;;2.00;99.90;;;;;;4955233;28;20662;-71
2022/01/13 07:12:09;;;;;;;28.27;21.70;;;1.90;99.90;;;;;;4955216;29;20263;-71
2022/01/13 07:14:55;;;;;;;31.08;20.95;;;1.90;99.90;;;;;;4953625;28;20272;-72
2022/01/13 07:17:41;;;;;;;29.25;20.70;;;1.90;99.90;;;;;;4953588;28;20208;-71
2022/01/13 07:20:29;;;;;;;30.58;20.50;;;1.90;99.90;;;;;;4952553;28;20713;-71
2022/01/13 07:23:15;;;;;;;32.05;21.65;;;2.00;99.90;;;;;;4955357;28;20228;-72
2022/01/13 07:26:02;;;;;;;35.08;22.73;;;1.80;99.90;;;;;;4953396;28;20295;-71
2022/01/13 07:28:47;;;;;;;50.67;29.95;;;1.70;99.90;;;;;;4954333;28;20264;-71
2022/01/13 07:31:33;;;;;;;41.55;25.70;;;1.70;99.90;;;;;;4955820;28;20631;-71
2022/01/13 07:34:19;;;;;;;43.90;27.52;;;1.90;99.90;;;;;;4952286;28;20384;-71
2022/01/13 07:37:06;;;;;;;39.25;23.83;;;1.90;99.90;;;;;;4960067;28;20240;-71
2022/01/13 07:39:52;;;;;;;32.15;22.15;;;2.00;99.90;;;;;;4955521;28;20690;-71
2022/01/13 07:42:41;;;;;;;29.20;21.33;;;2.00;99.90;;;;;;4952380;28;20227;-71
2022/01/13 07:45:27;;;;;;;31.73;22.88;;;2.10;99.90;;;;;;4947410;29;20613;-69
2022/01/13 07:48:13;;;;;;;31.65;21.10;;;2.20;99.90;;;;;;4955154;29;20571;-70
2022/01/13 07:50:59;;;;;;;30.88;20.33;;;2.00;99.90;;;;;;4947035;29;20212;-69
2022/01/13 07:53:46;;;;;;;30.67;20.70;;;1.90;99.90;;;;;;4954326;29;20268;-71
2022/01/13 07:56:31;;;;;;;33.22;21.42;;;1.90;99.90;;;;;;4960446;28;20216;-71
2022/01/13 07:59:17;;;;;;;34.70;22.20;;;1.90;99.90;;;;;;4951607;29;20204;-71
2022/01/13 08:02:04;;;;;;;30.13;21.00;;;2.00;99.90;;;;;;4950406;29;20217;-71
2022/01/13 08:04:50;;;;;;;38.65;21.90;;;2.00;99.90;;;;;;4948942;29;20575;-71
2022/01/13 08:07:35;;;;;;;45.05;26.27;;;1.90;99.90;;;;;;4948653;29;20205;-71
2022/01/13 08:10:23;;;;;;;49.08;26.63;;;1.80;99.90;;;;;;4955232;29;20196;-71
2022/01/13 08:13:08;;;;;;;43.70;25.92;;;1.90;99.90;;;;;;4942199;28;20228;-71
2022/01/13 08:15:55;;;;;;;39.80;26.05;;;2.00;99.90;;;;;;4952091;29;20255;-71
2022/01/13 08:21:44;;;;;;;32.40;22.13;;;2.10;99.90;;;;;;4949006;29;20790;-71
2022/01/13 08:24:30;;;;;;;31.20;18.98;;;2.00;99.90;;;;;;4941919;28;20224;-71
2022/01/13 08:27:17;;;;;;;31.67;20.83;;;2.10;99.90;;;;;;4949977;28;20248;-71
2022/01/13 08:30:04;;;;;;;32.25;22.00;;;2.20;99.90;;;;;;4952606;28;20291;-71
2022/01/13 08:32:50;;;;;;;33.30;22.60;;;2.30;99.90;;;;;;4951059;28;20247;-71
2022/01/13 08:35:36;;;;;;;31.52;21.00;;;2.50;99.90;;;;;;4952060;29;20231;-71
2022/01/13 08:38:24;;;;;;;35.50;22.30;;;2.50;99.90;;;;;;4953617;29;20320;-71
2022/01/13 08:41:09;;;;;;;34.08;22.48;;;2.50;99.90;;;;;;4954780;29;20199;-71
2022/01/13 08:43:56;;;;;;;35.60;21.15;;;2.50;99.90;;;;;;4950424;29;20260;-71
2022/01/13 08:46:42;;;;;;;33.80;22.60;;;2.60;99.90;;;;;;4952912;29;20243;-71
2022/01/13 08:49:28;;;;;;;26.92;19.50;;;2.70;99.90;;;;;;4954032;29;20204;-71
2022/01/13 08:52:13;;;;;;;33.65;21.15;;;2.80;99.90;;;;;;4954192;29;20276;-71
2022/01/13 08:54:59;;;;;;;38.92;24.67;;;2.80;99.90;;;;;;4951048;29;20690;-71
2022/01/13 08:57:45;;;;;;;36.28;24.40;;;2.80;99.90;;;;;;4953825;29;20227;-71
2022/01/13 09:00:32;;;;;;;43.30;26.38;;;2.80;99.90;;;;;;4946345;28;20212;-71
2022/01/13 09:03:18;;;;;;;46.83;26.67;;;2.80;99.90;;;;;;4947289;29;20594;-71
2022/01/13 09:06:04;;;;;;;35.22;21.15;;;2.90;99.90;;;;;;4935237;29;20839;-71
2022/01/13 09:08:50;;;;;;;35.65;19.80;;;2.90;99.90;;;;;;4952762;29;20268;-71
2022/01/13 09:11:36;;;;;;;28.25;18.83;;;2.90;99.90;;;;;;4954190;29;20192;-71
2022/01/13 09:14:25;;;;;;;30.58;20.33;;;3.00;99.90;;;;;;4940883;29;20349;-71
2022/01/13 09:17:20;;;;;;;32.42;19.83;;;3.00;99.90;;;;;;4952164;28;20208;-71
2022/01/13 09:20:06;;;;;;;37.03;23.10;;;3.00;99.90;;;;;;4947190;29;20213;-71
2022/01/13 09:22:52;;;;;;;41.63;21.55;;;3.00;99.90;;;;;;4941710;29;20814;-71
2022/01/13 09:25:38;;;;;;;37.13;23.25;;;3.10;99.90;;;;;;4934715;29;20687;-71
2022/01/13 09:28:24;;;;;;;44.42;25.27;;;3.20;99.90;;;;;;4957759;28;20207;-71
2022/01/13 09:31:10;;;;;;;49.88;27.73;;;3.20;99.90;;;;;;4961365;28;20280;-71
2022/01/13 09:33:57;;;;;;;39.75;22.20;;;3.30;99.90;;;;;;4943890;28;20313;-71
2022/01/13 09:36:42;;;;;;;41.95;23.52;;;3.30;99.90;;;;;;4953616;29;20587;-71
2022/01/13 09:39:28;;;;;;;36.25;21.23;;;3.40;99.90;;;;;;4953616;29;20211;-71
2022/01/13 09:42:14;;;;;;;37.47;21.60;;;3.50;99.90;;;;;;4951739;29;20200;-71
2022/01/13 09:45:02;;;;;;;34.03;21.50;;;3.50;99.90;;;;;;4934538;29;20241;-71
2022/01/13 09:47:48;;;;;;;33.78;20.83;;;3.50;99.90;;;;;;4934213;29;20576;-71
2022/01/13 09:50:36;;;;;;;40.83;22.13;;;3.60;99.90;;;;;;4948343;28;20219;-71
2022/01/13 09:53:21;;;;;;;38.53;24.27;;;3.70;99.90;;;;;;4941930;29;20237;-71
2022/01/13 09:56:08;;;;;;;40.03;23.55;;;3.80;99.90;;;;;;4934481;29;20208;-71
2022/01/13 09:58:54;;;;;;;39.17;25.60;;;3.70;99.90;;;;;;4948730;28;20315;-71
2022/01/13 10:01:39;;;;;;;41.42;22.15;;;3.70;99.90;;;;;;4952294;29;20225;-71
2022/01/13 10:04:25;;;;;;;36.45;22.60;;;3.70;99.90;;;;;;4945728;29;20777;-71
2022/01/13 10:07:13;;;;;;;35.13;22.48;;;3.70;99.90;;;;;;4936938;29;20200;-71
2022/01/13 10:10:01;;;;;;;32.50;21.02;;;3.70;99.90;;;;;;4953181;29;20255;-71
2022/01/13 10:12:49;;;;;;;27.77;19.65;;;3.80;99.90;;;;;;4935989;28;20236;-71
2022/01/13 10:18:48;;;;;;;31.58;20.75;;;3.80;99.90;;;;;;4934730;28;20727;-71
2022/01/13 10:21:34;;;;;;;32.92;18.95;;;3.80;99.90;;;;;;4942386;29;20637;-71
2022/01/13 10:24:25;;;;;;;31.48;19.20;;;3.70;99.90;;;;;;4947273;28;20591;-71
2022/01/13 10:27:13;;;;;;;27.90;19.17;;;3.70;99.90;;;;;;4952105;29;20490;-71
2022/01/13 10:30:00;;;;;;;33.38;21.55;;;3.70;99.90;;;;;;4952813;29;20244;-71
2022/01/13 10:32:46;;;;;;;38.35;22.95;;;3.70;99.90;;;;;;4950975;29;20235;-71
2022/01/13 10:35:35;;;;;;;31.40;21.52;;;3.80;99.90;;;;;;4952966;29;20188;-71
2022/01/13 10:38:21;;;;;;;35.03;22.88;;;3.80;99.90;;;;;;4952741;29;20228;-71
2022/01/13 10:41:31;;;;;;;32.25;21.73;;;3.90;99.90;;;;;;4960690;28;20308;-71
2022/01/13 10:44:19;;;;;;;32.45;21.40;;;4.00;99.90;;;;;;4955773;28;20353;-71
2022/01/13 10:47:06;;;;;;;32.10;21.30;;;4.10;99.90;;;;;;4955648;29;20579;-72
2022/01/13 10:49:51;;;;;;;28.88;20.48;;;4.30;99.90;;;;;;4954413;29;20256;-71
2022/01/13 10:52:37;;;;;;;28.75;19.05;;;4.40;99.90;;;;;;4949965;29;20605;-69
2022/01/13 10:55:24;;;;;;;29.45;20.25;;;4.70;99.90;;;;;;4956566;29;20189;-70
2022/01/13 10:58:13;;;;;;;30.40;20.48;;;4.80;99.90;;;;;;4954850;29;20333;-69
2022/01/13 11:01:00;;;;;;;30.90;20.33;;;5.00;99.90;;;;;;4955226;29;20208;-69
2022/01/13 11:03:47;;;;;;;34.15;22.15;;;5.30;99.90;;;;;;4952840;28;20232;-69
2022/01/13 11:06:33;;;;;;;34.30;20.10;;;5.50;99.90;;;;;;4953551;29;20264;-69
2022/01/13 11:09:21;;;;;;;29.38;20.05;;;5.60;99.90;;;;;;4951761;29;20681;-69
2022/01/13 11:12:07;;;;;;;30.80;19.40;;;5.70;99.90;;;;;;4954892;29;20212;-69
2022/01/13 11:15:00;;;;;;;26.95;19.17;;;5.80;99.90;;;;;;4955389;29;20678;-69
2022/01/13 11:17:46;;;;;;;29.67;19.27;;;6.00;99.90;;;;;;4955274;29;20240;-69
2022/01/13 11:20:31;;;;;;;31.90;20.02;;;6.00;99.90;;;;;;4948160;29;20200;-69
2022/01/13 11:23:18;;;;;;;32.13;22.30;;;6.00;99.90;;;;;;4954430;28;20243;-69
2022/01/13 11:26:04;;;;;;;29.35;20.02;;;6.00;99.90;;;;;;4954230;29;20694;-69
2022/01/13 11:28:50;;;;;;;31.45;19.95;;;6.00;99.90;;;;;;4955785;29;20200;-69
2022/01/13 11:31:40;;;;;;;35.00;22.35;;;5.80;99.90;;;;;;4953693;29;20200;-69
2022/01/13 11:34:25;;;;;;;29.88;20.73;;;5.90;99.90;;;;;;4949738;29;20227;-69
2022/01/13 11:37:11;;;;;;;32.47;21.10;;;5.90;99.90;;;;;;4952760;29;20580;-69
2022/01/13 11:39:58;;;;;;;30.48;20.10;;;5.80;99.90;;;;;;4953597;29;20205;-69
2022/01/13 11:42:46;;;;;;;33.00;21.55;;;5.70;99.90;;;;;;4954337;28;20228;-70
2022/01/13 11:45:40;;;;;;;45.85;23.48;;;5.70;99.90;;;;;;4951657;29;20694;-69
2022/01/13 11:48:29;;;;;;;30.42;21.90;;;5.70;99.90;;;;;;4952952;29;20196;-69
2022/01/13 11:51:17;;;;;;;35.17;23.60;;;5.60;99.90;;;;;;4950355;29;20291;-69
2022/01/13 11:54:05;;;;;;;32.10;22.30;;;5.50;99.90;;;;;;4950404;28;20276;-69
2022/01/13 11:57:10;;;;;;;30.98;21.35;;;5.50;99.90;;;;;;4951710;28;20407;-69
2022/01/13 12:00:22;;;;;;;38.50;22.92;;;5.40;99.90;;;;;;4950888;29;20701;-69
2022/01/13 12:03:24;;;;;;;30.83;19.65;;;5.30;99.90;;;;;;4941403;29;20232;-69
2022/01/13 12:06:38;;;;;;;27.05;20.30;;;5.40;99.90;;;;;;4955698;29;20196;-69
2022/01/13 12:09:40;;;;;;;36.90;20.95;;;5.50;99.90;;;;;;4951554;28;20734;-70
2022/01/13 12:12:31;;;;;;;33.00;21.67;;;5.50;99.90;;;;;;4952609;29;20196;-70
2022/01/13 12:15:18;;;;;;;33.40;20.92;;;5.40;99.90;;;;;;4945913;29;20695;-70
2022/01/13 12:18:05;;;;;;;31.00;21.25;;;5.50;99.90;;;;;;4949448;29;20219;-70
2022/01/13 12:21:09;;;;;;;38.28;22.80;;;5.50;99.90;;;;;;4952221;29;20260;-69
2022/01/13 12:23:59;;;;;;;36.97;23.00;;;5.60;99.90;;;;;;4941249;28;20228;-69
2022/01/13 12:26:51;;;;;;;35.03;24.17;;;5.60;99.90;;;;;;4951292;28;20200;-69
2022/01/13 12:29:44;;;;;;;58.08;30.67;;;5.90;99.90;;;;;;4947887;28;20205;-70
2022/01/13 12:32:39;;;;;;;39.65;24.40;;;6.00;99.90;;;;;;4949639;28;20693;-70
2022/01/13 12:35:43;;;;;;;33.38;23.90;;;6.30;99.90;;;;;;4949656;29;20204;-70
2022/01/13 12:38:29;;;;;;;33.65;23.50;;;6.60;99.90;;;;;;4947836;29;20224;-70
2022/01/13 12:41:26;;;;;;;35.92;24.88;;;7.10;99.90;;;;;;4950579;29;20336;-70
2022/01/13 12:45:27;;;;;;;31.98;20.15;;;7.30;99.90;;;;;;4953652;29;20228;-69
2022/01/13 12:47:19;;;;;;;33.63;21.73;;;7.10;99.90;;;;;;4943892;29;20205;-69
2022/01/13 12:50:15;;;;;;;28.40;20.25;;;7.30;99.90;;;;;;4943730;29;20694;-69
2022/01/13 12:53:12;;;;;;;30.38;20.55;;;7.70;99.90;;;;;;4937983;29;20229;-70
2022/01/13 12:56:00;;;;;;;37.78;23.00;;;8.20;99.90;;;;;;4939121;29;20220;-70
2022/01/13 12:58:49;;;;;;;28.45;18.80;;;8.30;99.90;;;;;;4949184;29;20229;-70
2022/01/13 13:01:38;;;;;;;28.42;18.98;;;8.40;99.90;;;;;;4950911;28;20205;-69
2022/01/13 13:04:23;;;;;;;32.08;21.42;;;8.40;99.90;;;;;;4949321;28;20239;-69
2022/01/13 13:07:09;;;;;;;29.90;20.88;;;8.70;99.90;;;;;;4951914;29;20196;-70
2022/01/13 13:10:04;;;;;;;33.20;19.55;;;8.80;99.90;;;;;;4951601;29;20208;-70
2022/01/13 13:12:52;;;;;;;252.32;91.72;;;8.70;99.90;;;;;;4950216;28;20227;-71
2022/01/13 13:15:42;;;;;;;104.70;49.72;;;8.70;99.90;;;;;;4951682;28;20365;-72
2022/01/13 13:18:30;;;;;;;56.00;30.55;;;8.90;99.90;;;;;;4951620;28;20227;-71
2022/01/13 13:21:16;;;;;;;99.67;44.43;;;9.20;99.90;;;;;;4949396;28;20212;-71
2022/01/13 13:24:01;;;;;;;92.60;44.50;;;9.40;97.80;;;;;;4952612;28;20506;-71
2022/01/13 13:26:47;;;;;;;39.87;25.47;;;9.60;97.90;;;;;;4953134;28;20463;-71
2022/01/13 13:29:33;;;;;;;35.40;25.13;;;9.90;94.70;;;;;;4948772;29;20856;-71
2022/01/13 13:32:20;;;;;;;33.40;24.63;;;9.20;95.90;;;;;;4948033;29;20956;-71
2022/01/13 13:35:13;;;;;;;45.67;27.67;;;8.60;99.90;;;;;;4952136;29;20462;-71
2022/01/13 13:37:59;;;;;;;45.53;28.23;;;8.10;99.90;;;;;;4953729;29;21232;-71
2022/01/13 13:40:46;;;;;;;67.70;35.07;;;8.30;99.90;;;;;;4951054;29;20551;-71
2022/01/13 13:43:33;;;;;;;36.87;26.20;;;8.90;99.90;;;;;;4950490;29;20483;-72
2022/01/13 13:46:18;;;;;;;38.40;25.10;;;9.40;98.20;;;;;;4941714;29;20568;-72
2022/01/13 13:49:07;;;;;;;58.30;30.10;;;9.00;98.20;;;;;;4951362;29;20426;-71
2022/01/13 13:51:57;;;;;;;79.10;37.73;;;8.40;99.90;;;;;;4948493;29;20961;-71
2022/01/13 13:54:48;;;;;;;64.50;33.73;;;7.70;99.90;;;;;;4952814;29;20455;-71
2022/01/13 13:57:37;;;;;;;72.63;36.17;;;7.40;99.90;;;;;;4956547;28;20472;-71
2022/01/13 14:00:26;;;;;;;95.87;43.40;;;6.80;99.90;;;;;;4950778;29;20811;-71
2022/01/13 14:03:12;;;;;;;74.88;36.47;;;6.40;99.90;;;;;;4951450;29;20565;-71
2022/01/13 14:05:59;;;;;;;72.97;36.03;;;6.20;99.90;;;;;;4952001;29;20204;-71
2022/01/13 14:08:56;;;;;;;81.78;38.85;;;6.10;99.90;;;;;;4949218;28;20678;-71
2022/01/13 14:11:47;;;;;;;75.67;39.40;;;6.10;99.90;;;;;;4948748;29;20208;-71
2022/01/13 14:14:37;;;;;;;74.45;36.15;;;6.00;99.90;;;;;;4948351;29;20444;-71
2022/01/13 14:17:31;;;;;;;66.75;33.97;;;6.00;99.90;;;;;;4949266;29;20240;-72
2022/01/13 14:20:20;;;;;;;80.70;38.10;;;5.90;99.90;;;;;;4949868;29;20208;-71
2022/01/13 14:23:09;;;;;;;91.55;40.10;;;5.90;99.90;;;;;;4957107;28;20545;-71
2022/01/13 14:26:02;;;;;;;78.93;39.38;;;5.90;99.90;;;;;;4955483;29;20244;-71
2022/01/13 14:28:52;;;;;;;68.82;35.40;;;5.90;99.90;;;;;;4952398;29;20185;-71
2022/01/13 14:31:38;;;;;;;53.55;29.05;;;5.80;99.90;;;;;;4954308;29;20200;-71
2022/01/13 14:34:27;;;;;;;54.10;30.88;;;5.80;99.90;;;;;;4949785;29;20352;-71